Map

Track Data

SID SEASON NUMBER BASIN SUBBASIN NAME ISO_TIME NATURE LAT LON WMO_WIND WMO_PRES WMO_AGENCY TRACK_TYPE DIST2LAND LANDFALL IFLAG USA_AGENCY USA_ATCF_ID USA_LAT USA_LON USA_RECORD USA_STATUS USA_WIND USA_PRES USA_SSHS USA_R34_NE USA_R34_SE USA_R34_SW USA_R34_NW USA_R50_NE USA_R50_SE USA_R50_SW USA_R50_NW USA_R64_NE USA_R64_SE USA_R64_SW USA_R64_NW USA_POCI USA_ROCI USA_RMW USA_EYE TOKYO_LAT TOKYO_LON TOKYO_GRADE TOKYO_WIND TOKYO_PRES TOKYO_R50_DIR TOKYO_R50_LONG TOKYO_R50_SHORT TOKYO_R30_DIR TOKYO_R30_LONG TOKYO_R30_SHORT TOKYO_LAND CMA_LAT CMA_LON CMA_CAT CMA_WIND CMA_PRES HKO_LAT HKO_LON HKO_CAT HKO_WIND HKO_PRES NEWDELHI_LAT NEWDELHI_LON NEWDELHI_GRADE NEWDELHI_WIND NEWDELHI_PRES NEWDELHI_CI NEWDELHI_DP NEWDELHI_POCI REUNION_LAT REUNION_LON REUNION_TYPE REUNION_WIND REUNION_PRES REUNION_TNUM REUNION_CI REUNION_RMW REUNION_R34_NE REUNION_R34_SE REUNION_R34_SW REUNION_R34_NW REUNION_R50_NE REUNION_R50_SE REUNION_R50_SW REUNION_R50_NW REUNION_R64_NE REUNION_R64_SE REUNION_R64_SW REUNION_R64_NW BOM_LAT BOM_LON BOM_TYPE BOM_WIND BOM_PRES BOM_TNUM BOM_CI BOM_RMW BOM_R34_NE BOM_R34_SE BOM_R34_SW BOM_R34_NW BOM_R50_NE BOM_R50_SE BOM_R50_SW BOM_R50_NW BOM_R64_NE BOM_R64_SE BOM_R64_SW BOM_R64_NW BOM_ROCI BOM_POCI BOM_EYE BOM_POS_METHOD BOM_PRES_METHOD NADI_LAT NADI_LON NADI_CAT NADI_WIND NADI_PRES WELLINGTON_LAT WELLINGTON_LON WELLINGTON_WIND WELLINGTON_PRES DS824_LAT DS824_LON DS824_STAGE DS824_WIND DS824_PRES TD9636_LAT TD9636_LON TD9636_STAGE TD9636_WIND TD9636_PRES TD9635_LAT TD9635_LON TD9635_WIND TD9635_PRES TD9635_ROCI NEUMANN_LAT NEUMANN_LON NEUMANN_CLASS NEUMANN_WIND NEUMANN_PRES MLC_LAT MLC_LON MLC_CLASS MLC_WIND MLC_PRES USA_GUST BOM_GUST BOM_GUST_PER REUNION_GUST REUNION_GUST_PER USA_SEAHGT USA_SEARAD_NE USA_SEARAD_SE USA_SEARAD_SW USA_SEARAD_NW STORM_SPEED STORM_DIR
1981244N30287 1981 73 NA NA EMILY 1981-08-31 12:00:00 SS 29.8000 -72.7000 30 1008 hurdat_atl main 652 652 O_____________ hurdat_atl AL131981 29.8000 -72.7000 SD 30 1008 -2 13 84
1981244N30287 1981 73 NA NA EMILY 1981-08-31 15:00:00 SS 29.8657 -71.9555 main 681 681 P_____________ AL131981 29.8657 -71.9555 SD 30 1007 -2 13 86
1981244N30287 1981 73 NA NA EMILY 1981-08-31 18:00:00 SS 29.9000 -71.2000 30 1006 hurdat_atl main 730 730 O_____________ hurdat_atl AL131981 29.9000 -71.2000 SD 30 1006 -2 13 89
1981244N30287 1981 73 NA NA EMILY 1981-08-31 21:00:00 SS 29.8923 -70.4345 main 783 783 P_____________ AL131981 29.8923 -70.4345 SD 32 1005 -2 13 90
1981244N30287 1981 73 NA NA EMILY 1981-09-01 00:00:00 SS 29.9000 -69.7000 35 1004 hurdat_atl main 832 832 O_____________ hurdat_atl AL131981 29.9000 -69.7000 SS 35 1004 -2 12 86
1981244N30287 1981 73 NA NA EMILY 1981-09-01 03:00:00 SS 29.9772 -69.0201 main 874 874 P_____________ AL131981 29.9772 -69.0201 SS 37 1002 -2 11 80
1981244N30287 1981 73 NA NA EMILY 1981-09-01 06:00:00 SS 30.1000 -68.4000 40 1000 hurdat_atl main 912 912 O_____________ hurdat_atl AL131981 30.1000 -68.4000 SS 40 1000 -2 11 78
1981244N30287 1981 73 NA NA EMILY 1981-09-01 09:00:00 SS 30.1974 -67.8045 main 949 949 P_____________ AL131981 30.1974 -67.8045 SS 40 998 -2 10 72
1981244N30287 1981 73 NA NA EMILY 1981-09-01 12:00:00 TS 30.4000 -67.3000 40 996 hurdat_atl main 970 964 O_____________ hurdat_atl AL131981 30.4000 -67.3000 TS 40 996 0 10 50
1981244N30287 1981 73 NA NA EMILY 1981-09-01 15:00:00 TS 30.8271 -66.9202 main 972 960 P_____________ AL131981 30.8271 -66.9202 TS 42 995 0 11 34
1981244N30287 1981 73 NA NA EMILY 1981-09-01 18:00:00 TS 31.3000 -66.6000 45 994 hurdat_atl main 963 959 O_____________ hurdat_atl AL131981 31.3000 -66.6000 TS 45 994 0 10 36
1981244N30287 1981 73 NA NA EMILY 1981-09-01 21:00:00 TS 31.6148 -66.2569 main 969 969 P_____________ AL131981 31.6148 -66.2569 TS 47 993 0 8 45
1981244N30287 1981 73 NA NA EMILY 1981-09-02 00:00:00 TS 31.9000 -65.9000 50 992 hurdat_atl main 985 985 O_____________ hurdat_atl AL131981 31.9000 -65.9000 TS 50 992 0 9 46
1981244N30287 1981 73 NA NA EMILY 1981-09-02 03:00:00 TS 32.2425 -65.5000 main 1003 998 P_____________ AL131981 32.2425 -65.5000 TS 50 991 0 10 44
1981244N30287 1981 73 NA NA EMILY 1981-09-02 06:00:00 TS 32.6000 -65.1000 50 990 hurdat_atl main 1018 1018 O_____________ hurdat_atl AL131981 32.6000 -65.1000 TS 50 990 0 10 43
1981244N30287 1981 73 NA NA EMILY 1981-09-02 09:00:00 TS 32.9425 -64.7124 main 1040 1036 P_____________ AL131981 32.9425 -64.7124 TS 50 989 0 9 40
1981244N30287 1981 73 NA NA EMILY 1981-09-02 12:00:00 TS 33.3000 -64.4000 50 988 hurdat_atl main 1051 1025 O_____________ hurdat_atl AL131981 33.3000 -64.4000 TS 50 988 0 9 30
1981244N30287 1981 73 NA NA EMILY 1981-09-02 15:00:00 TS 33.6849 -64.2047 main 1025 990 P_____________ AL131981 33.6849 -64.2047 TS 52 987 0 8 17
1981244N30287 1981 73 NA NA EMILY 1981-09-02 18:00:00 TS 34.1000 -64.1000 55 986 hurdat_atl main 990 956 O_____________ hurdat_atl AL131981 34.1000 -64.1000 TS 55 986 0 9 14
1981244N30287 1981 73 NA NA EMILY 1981-09-02 21:00:00 TS 34.5347 -63.9537 main 956 909 P_____________ AL131981 34.5347 -63.9537 TS 55 985 0 9 5
1981244N30287 1981 73 NA NA EMILY 1981-09-03 00:00:00 TS 35.0000 -64.0000 55 984 hurdat_atl main 909 834 O_____________ hurdat_atl AL131981 35.0000 -64.0000 TS 55 984 0 12 341
1981244N30287 1981 73 NA NA EMILY 1981-09-03 03:00:00 TS 35.6431 -64.4287 main 834 767 P_____________ AL131981 35.6431 -64.4287 TS 57 983 0 13 321
1981244N30287 1981 73 NA NA EMILY 1981-09-03 06:00:00 TS 36.0000 -65.0000 60 982 hurdat_atl main 767 757 O_____________ hurdat_atl AL131981 36.0000 -65.0000 TS 60 982 0 9 269
1981244N30287 1981 73 NA NA EMILY 1981-09-03 09:00:00 TS 35.6350 -65.5392 main 782 778 P_____________ AL131981 35.6350 -65.5392 TS 60 981 0 12 213
1981244N30287 1981 73 NA NA EMILY 1981-09-03 12:00:00 TS 35.0000 -65.8000 60 980 hurdat_atl main 830 830 O_____________ hurdat_atl AL131981 35.0000 -65.8000 TS 60 980 0 11 181
1981244N30287 1981 73 NA NA EMILY 1981-09-03 15:00:00 TS 34.4946 -65.5621 main 888 888 P_____________ AL131981 34.4946 -65.5621 TS 60 979 0 10 140
1981244N30287 1981 73 NA NA EMILY 1981-09-03 18:00:00 TS 34.2000 -65.0000 60 978 hurdat_atl main 942 942 O_____________ hurdat_atl AL131981 34.2000 -65.0000 TS 60 978 0 11 101
1981244N30287 1981 73 NA NA EMILY 1981-09-03 21:00:00 TS 34.2883 -64.3089 main 962 961 P_____________ AL131981 34.2883 -64.3089 TS 62 977 0 12 71
1981244N30287 1981 73 NA NA EMILY 1981-09-04 00:00:00 TS 34.6000 -63.6000 65 976 hurdat_atl main 967 960 O_____________ hurdat_atl AL131981 34.6000 -63.6000 HU 65 976 1 12 58
1981244N30287 1981 73 NA NA EMILY 1981-09-04 03:00:00 TS 34.9119 -63.1045 main 965 939 P_____________ AL131981 34.9119 -63.1045 HU 67 975 1 10 47
1981244N30287 1981 73 NA NA EMILY 1981-09-04 06:00:00 TS 35.3000 -62.7000 70 974 hurdat_atl main 939 902 O_____________ hurdat_atl AL131981 35.3000 -62.7000 HU 70 974 1 11 39
1981244N30287 1981 73 NA NA EMILY 1981-09-04 09:00:00 TS 35.7349 -62.2848 main 905 862 P_____________ AL131981 35.7349 -62.2848 HU 70 973 1 11 36
1981244N30287 1981 73 NA NA EMILY 1981-09-04 12:00:00 TS 36.2000 -61.9000 70 972 hurdat_atl main 862 829 O_____________ hurdat_atl AL131981 36.2000 -61.9000 HU 70 972 1 11 35
1981244N30287 1981 73 NA NA EMILY 1981-09-04 15:00:00 TS 36.6350 -61.5124 main 832 791 P_____________ AL131981 36.6350 -61.5124 HU 70 971 1 11 32
1981244N30287 1981 73 NA NA EMILY 1981-09-04 18:00:00 TS 37.1000 -61.2000 70 971 hurdat_atl main 791 739 O_____________ hurdat_atl AL131981 37.1000 -61.2000 HU 70 971 1 11 21
1981244N30287 1981 73 NA NA EMILY 1981-09-04 21:00:00 TS 37.6873 -61.0048 main 739 695 P_____________ AL131981 37.6873 -61.0048 HU 72 970 1 11 12
1981244N30287 1981 73 NA NA EMILY 1981-09-05 00:00:00 TS 38.2000 -60.9000 75 970 hurdat_atl main 695 676 O_____________ hurdat_atl AL131981 38.2000 -60.9000 HU 75 970 1 8 10
1981244N30287 1981 73 NA NA EMILY 1981-09-05 03:00:00 TS 38.4525 -60.8271 main 671 662 P_____________ AL131981 38.4525 -60.8271 HU 75 969 1 4 11
1981244N30287 1981 73 NA NA EMILY 1981-09-05 06:00:00 TS 38.6000 -60.8000 75 968 hurdat_atl main 662 638 O_____________ hurdat_atl AL131981 38.6000 -60.8000 HU 75 968 1 3 0
1981244N30287 1981 73 NA NA EMILY 1981-09-05 09:00:00 TS 38.7997 -60.8594 main 638 625 P_____________ AL131981 38.7997 -60.8594 HU 75 967 1 4 0
1981244N30287 1981 73 NA NA EMILY 1981-09-05 12:00:00 TS 39.0000 -60.8000 75 967 hurdat_atl main 625 621 O_____________ hurdat_atl AL131981 39.0000 -60.8000 HU 75 967 1 5 41
1981244N30287 1981 73 NA NA EMILY 1981-09-05 15:00:00 TS 39.1928 -60.4177 main 628 624 P_____________ AL131981 39.1928 -60.4177 HU 77 966 1 8 60
1981244N30287 1981 73 NA NA EMILY 1981-09-05 18:00:00 TS 39.4000 -59.9000 80 966 hurdat_atl main 634 625 O_____________ hurdat_atl AL131981 39.4000 -59.9000 HU 80 966 1 9 59
1981244N30287 1981 73 NA NA EMILY 1981-09-05 21:00:00 TS 39.6501 -59.4277 main 621 611 P_____________ AL131981 39.6501 -59.4277 HU 80 966 1 9 54
1981244N30287 1981 73 NA NA EMILY 1981-09-06 00:00:00 TS 39.9000 -59.0000 80 967 hurdat_atl main 613 599 O_____________ hurdat_atl AL131981 39.9000 -59.0000 HU 80 967 1 7 53
1981244N30287 1981 73 NA NA EMILY 1981-09-06 03:00:00 TS 40.0998 -58.6621 main 599 584 P_____________ AL131981 40.0998 -58.6621 HU 80 967 1 6 49
1981244N30287 1981 73 NA NA EMILY 1981-09-06 06:00:00 TS 40.3000 -58.4000 80 968 hurdat_atl main 587 569 O_____________ hurdat_atl AL131981 40.3000 -58.4000 HU 80 968 1 6 38
1981244N30287 1981 73 NA NA EMILY 1981-09-06 09:00:00 TS 40.5498 -58.1997 main 573 549 P_____________ AL131981 40.5498 -58.1997 HU 80 969 1 6 31
1981244N30287 1981 73 NA NA EMILY 1981-09-06 12:00:00 TS 40.8000 -58.0000 80 970 hurdat_atl main 549 537 O_____________ hurdat_atl AL131981 40.8000 -58.0000 HU 80 970 1 6 39
1981244N30287 1981 73 NA NA EMILY 1981-09-06 15:00:00 TS 41.0075 -57.7149 main 541 531 P_____________ AL131981 41.0075 -57.7149 HU 77 970 1 6 49
1981244N30287 1981 73 NA NA EMILY 1981-09-06 18:00:00 TS 41.2000 -57.4000 75 971 hurdat_atl main 535 526 O_____________ hurdat_atl AL131981 41.2000 -57.4000 HU 75 971 1 6 48
1981244N30287 1981 73 NA NA EMILY 1981-09-06 21:00:00 TS 41.4072 -57.1222 main 531 522 P_____________ AL131981 41.4072 -57.1222 HU 75 971 1 6 48
1981244N30287 1981 73 NA NA EMILY 1981-09-07 00:00:00 TS 41.6000 -56.8000 75 972 hurdat_atl main 528 525 O_____________ hurdat_atl AL131981 41.6000 -56.8000 HU 75 972 1 7 57
1981244N30287 1981 73 NA NA EMILY 1981-09-07 03:00:00 TS 41.7726 -56.3726 main 530 530 P_____________ AL131981 41.7726 -56.3726 HU 72 973 1 7 66
1981244N30287 1981 73 NA NA EMILY 1981-09-07 06:00:00 TS 41.9000 -55.9000 70 974 hurdat_atl main 544 543 O_____________ hurdat_atl AL131981 41.9000 -55.9000 HU 70 974 1 7 76
1981244N30287 1981 73 NA NA EMILY 1981-09-07 09:00:00 TS 41.9498 -55.4493 main 541 523 P_____________ AL131981 41.9498 -55.4493 HU 70 975 1 7 81
1981244N30287 1981 73 NA NA EMILY 1981-09-07 12:00:00 TS 42.0000 -55.0000 70 976 hurdat_atl main 523 506 O_____________ hurdat_atl AL131981 42.0000 -55.0000 HU 70 976 1 7 75
1981244N30287 1981 73 NA NA EMILY 1981-09-07 15:00:00 TS 42.1275 -54.5351 main 505 479 P_____________ AL131981 42.1275 -54.5351 HU 67 977 1 7 66
1981244N30287 1981 73 NA NA EMILY 1981-09-07 18:00:00 TS 42.3000 -54.1000 65 978 hurdat_atl main 479 455 O_____________ hurdat_atl AL131981 42.3000 -54.1000 HU 65 978 1 7 57
1981244N30287 1981 73 NA NA EMILY 1981-09-07 21:00:00 TS 42.5071 -53.7499 main 455 433 P_____________ AL131981 42.5071 -53.7499 HU 62 980 0 7 52
1981244N30287 1981 73 NA NA EMILY 1981-09-08 00:00:00 TS 42.7000 -53.4000 60 982 hurdat_atl main 433 411 O_____________ hurdat_atl AL131981 42.7000 -53.4000 TS 60 982 0 7 58
1981244N30287 1981 73 NA NA EMILY 1981-09-08 03:00:00 TS 42.8827 -52.9434 main 411 411 P_____________ AL131981 42.8827 -52.9434 TS 60 983 0 7 73
1981244N30287 1981 73 NA NA EMILY 1981-09-08 06:00:00 TS 42.9000 -52.5000 60 984 hurdat_atl main 414 414 O_____________ hurdat_atl AL131981 42.9000 -52.5000 TS 60 984 0 6 117
1981244N30287 1981 73 NA NA EMILY 1981-09-08 09:00:00 TS 42.6022 -52.1843 main 451 451 P_____________ AL131981 42.6022 -52.1843 TS 57 985 0 8 148
1981244N30287 1981 73 NA NA EMILY 1981-09-08 12:00:00 TS 42.2000 -51.9000 55 986 hurdat_atl main 499 499 O_____________ hurdat_atl AL131981 42.2000 -51.9000 TS 55 986 0 8 146
1981244N30287 1981 73 NA NA EMILY 1981-09-08 15:00:00 TS 41.9497 -51.5810 main 537 537 P_____________ AL131981 41.9497 -51.5810 TS 55 987 0 7 134
1981244N30287 1981 73 NA NA EMILY 1981-09-08 18:00:00 TS 41.7000 -51.2000 55 988 hurdat_atl main 567 567 O_____________ hurdat_atl AL131981 41.7000 -51.2000 TS 55 988 0 9 135
1981244N30287 1981 73 NA NA EMILY 1981-09-08 21:00:00 TS 41.3200 -50.7289 main 621 621 P_____________ AL131981 41.3200 -50.7289 TS 55 989 0 10 133
1981244N30287 1981 73 NA NA EMILY 1981-09-09 00:00:00 TS 41.0000 -50.2000 55 990 hurdat_atl main 667 667 O_____________ hurdat_atl AL131981 41.0000 -50.2000 TS 55 990 0 9 118
1981244N30287 1981 73 NA NA EMILY 1981-09-09 03:00:00 TS 40.8972 -49.6659 main 692 692 P_____________ AL131981 40.8972 -49.6659 TS 52 990 0 8 97
1981244N30287 1981 73 NA NA EMILY 1981-09-09 06:00:00 TS 40.9000 -49.1000 50 991 hurdat_atl main 713 713 O_____________ hurdat_atl AL131981 40.9000 -49.1000 TS 50 991 0 9 91
1981244N30287 1981 73 NA NA EMILY 1981-09-09 09:00:00 TS 40.8850 -48.4925 main 736 736 P_____________ AL131981 40.8850 -48.4925 TS 50 991 0 9 90
1981244N30287 1981 73 NA NA EMILY 1981-09-09 12:00:00 TS 40.9000 -47.9000 50 992 hurdat_atl main 762 762 O_____________ hurdat_atl AL131981 40.9000 -47.9000 TS 50 992 0 8 87
1981244N30287 1981 73 NA NA EMILY 1981-09-09 15:00:00 TS 40.9346 -47.3849 main 784 784 P_____________ AL131981 40.9346 -47.3849 TS 50 992 0 8 82
1981244N30287 1981 73 NA NA EMILY 1981-09-09 18:00:00 TS 41.0000 -46.9000 50 993 hurdat_atl main 800 800 O_____________ hurdat_atl AL131981 41.0000 -46.9000 TS 50 993 0 8 81
1981244N30287 1981 73 NA NA EMILY 1981-09-09 21:00:00 TS 41.0550 -46.3844 main 817 817 P_____________ AL131981 41.0550 -46.3844 TS 47 994 0 8 75
1981244N30287 1981 73 NA NA EMILY 1981-09-10 00:00:00 TS 41.2000 -45.9000 45 995 hurdat_atl main 835 833 O_____________ hurdat_atl AL131981 41.2000 -45.9000 TS 45 995 0 8 57
1981244N30287 1981 73 NA NA EMILY 1981-09-10 03:00:00 TS 41.5200 -45.4484 main 840 827 P_____________ AL131981 41.5200 -45.4484 TS 42 996 0 9 41
1981244N30287 1981 73 NA NA EMILY 1981-09-10 06:00:00 TS 41.9000 -45.1000 40 998 hurdat_atl main 827 811 O_____________ hurdat_atl AL131981 41.9000 -45.1000 TS 40 998 0 8 27
1981244N30287 1981 73 NA NA EMILY 1981-09-10 09:00:00 TS 42.2370 -44.9491 main 818 802 P_____________ AL131981 42.2370 -44.9491 TS 40 999 0 6 20
1981244N30287 1981 73 NA NA EMILY 1981-09-10 12:00:00 TS 42.5000 -44.8000 40 1000 hurdat_atl main 802 802 O_____________ hurdat_atl AL131981 42.5000 -44.8000 TS 40 1000 0 6 41
1981244N30287 1981 73 NA NA EMILY 1981-09-10 15:00:00 TS 42.6827 -44.4307 main 814 814 P_____________ AL131981 42.6827 -44.4307 TS 40 1000 0 6 71
1981244N30287 1981 73 NA NA EMILY 1981-09-10 18:00:00 TS 42.7000 -44.0000 40 1001 hurdat_atl main 841 841 O_____________ hurdat_atl AL131981 42.7000 -44.0000 TS 40 1001 0 6 110
1981244N30287 1981 73 NA NA EMILY 1981-09-10 21:00:00 TS 42.4724 -43.6339 main 880 880 P_____________ AL131981 42.4724 -43.6339 TS 40 1001 0 7 134
1981244N30287 1981 73 NA NA EMILY 1981-09-11 00:00:00 TS 42.2000 -43.3000 40 1002 hurdat_atl main 920 920 O_____________ hurdat_atl AL131981 42.2000 -43.3000 TS 40 1002 0 6 128
1981244N30287 1981 73 NA NA EMILY 1981-09-11 03:00:00 TS 42.1048 -43.0003 main 946 946 P_____________ AL131981 42.1048 -43.0003 TS 37 1003 0 5 103
1981244N30287 1981 73 NA NA EMILY 1981-09-11 06:00:00 TS 42.1000 -42.7000 35 1004 hurdat_atl main 966 966 O_____________ hurdat_atl AL131981 42.1000 -42.7000 TS 35 1004 0 5 86
1981244N30287 1981 73 NA NA EMILY 1981-09-11 09:00:00 TS 42.1351 -42.3427 main 993 993 P_____________ AL131981 42.1351 -42.3427 TS 35 1004 0 5 79
1981244N30287 1981 73 NA NA EMILY 1981-09-11 12:00:00 TS 42.2000 -42.0000 35 1005 hurdat_atl main 1006 1006 O_____________ hurdat_atl AL131981 42.2000 -42.0000 TS 35 1005 0 5 78
1981244N30287 1981 73 NA NA EMILY 1981-09-11 15:00:00 TS 42.2273 -41.7347 main 1027 1027 P_____________ AL131981 42.2273 -41.7347 TS 32 1006 -1 4 75
1981244N30287 1981 73 NA NA EMILY 1981-09-11 18:00:00 ET 42.3000 -41.5000 30 1007 hurdat_atl main 1034 1034 O_____________ hurdat_atl AL131981 42.3000 -41.5000 EX 30 1007 -4 4 56
1981244N30287 1981 73 NA NA EMILY 1981-09-11 21:00:00 ET 42.4702 -41.2556 main 1036 1036 P_____________ AL131981 42.4702 -41.2556 EX 30 1007 -4 5 43
1981244N30287 1981 73 NA NA EMILY 1981-09-12 00:00:00 ET 42.7000 -41.0000 30 1008 hurdat_atl main 1046 O_____________ hurdat_atl AL131981 42.7000 -41.0000 EX 30 1008 -4 6 40

About IBTrACS Database

This database is a web-friendly format of International Best Track Archive for Climate Stewardship (IBTrACS), a global best track data archive curated by NOAA dating back to 1842.

Updated: 2021-11-26